Time;durP1;ratioP1;P1;durP2;ratioP2;P2;SDS_P1;SDS_P2;PMS_P1;PMS_P2;Temp;Humidity;BMP_temperature;BMP_pressure;BME280_temperature;BME280_humidity;BME280_pressure;Samples;Min_cycle;Max_cycle;Signal;HPM_P1;HPM_P2
2023/08/03 03:01:04;;;;;;;1.45;0.43;;;22.50;56.90;;;;;;5614011;23;45837;-84
2023/08/03 03:03:30;;;;;;;1.60;0.60;;;22.50;57.00;;;;;;4883017;28;47493;-82
2023/08/03 03:05:56;;;;;;;1.13;0.57;;;22.50;56.90;;;;;;4875853;28;45092;-80
2023/08/03 03:08:21;;;;;;;1.00;0.63;;;22.50;56.90;;;;;;4908646;28;45006;-80
2023/08/03 03:10:47;;;;;;;1.00;0.50;;;22.50;56.90;;;;;;4910951;28;45630;-83
2023/08/03 03:13:12;;;;;;;1.90;0.70;;;22.50;56.90;;;;;;4886170;29;45574;-82
2023/08/03 03:15:38;;;;;;;0.98;0.50;;;22.60;57.00;;;;;;4882330;28;45148;-83
2023/08/03 03:18:03;;;;;;;1.23;0.65;;;22.50;56.90;;;;;;4890940;28;45774;-83
2023/08/03 03:20:29;;;;;;;0.88;0.50;;;22.50;56.90;;;;;;4868418;29;44990;-82
2023/08/03 03:22:55;;;;;;;1.00;0.50;;;22.50;56.90;;;;;;4852363;28;46423;-80
2023/08/03 03:25:20;;;;;;;0.77;0.60;;;22.50;56.90;;;;;;4898168;28;45365;-82
2023/08/03 03:27:46;;;;;;;1.40;0.60;;;22.50;56.90;;;;;;4885646;28;44946;-82
2023/08/03 03:30:11;;;;;;;1.70;0.70;;;22.50;56.90;;;;;;4892849;28;45201;-84
2023/08/03 03:32:37;;;;;;;3.35;0.70;;;22.50;56.90;;;;;;4900350;28;46751;-85
2023/08/03 03:35:03;;;;;;;0.50;0.40;;;22.50;57.50;;;;;;4890550;28;45511;-84
2023/08/03 03:37:29;;;;;;;0.77;0.52;;;22.50;56.90;;;;;;4883974;28;44879;-81
2023/08/03 03:39:54;;;;;;;1.25;0.63;;;22.50;56.90;;;;;;4885893;28;45345;-83
2023/08/03 03:42:20;;;;;;;1.63;0.57;;;22.50;56.90;;;;;;4868520;28;46900;-82
2023/08/03 03:44:45;;;;;;;0.57;0.47;;;22.50;56.90;;;;;;4887184;28;45565;-81
2023/08/03 03:47:14;;;;;;;1.40;0.73;;;22.50;56.90;;;;;;4883838;28;44882;-82
2023/08/03 03:49:39;;;;;;;1.45;0.70;;;22.50;56.90;;;;;;4886643;28;45900;-81
2023/08/03 03:52:05;;;;;;;1.02;0.52;;;22.50;56.90;;;;;;4899128;28;46108;-79
2023/08/03 03:54:31;;;;;;;2.58;0.80;;;22.50;56.90;;;;;;4890135;28;44896;-83
2023/08/03 03:56:58;;;;;;;1.88;0.47;;;22.50;56.90;;;;;;4880187;28;45542;-80
2023/08/03 03:59:23;;;;;;;1.35;0.43;;;22.50;56.80;;;;;;4888291;28;45598;-82
2023/08/03 04:01:49;;;;;;;1.83;0.63;;;22.50;56.80;;;;;;4895942;28;46520;-80
2023/08/03 04:04:14;;;;;;;1.80;0.70;;;22.50;56.80;;;;;;4886672;28;45067;-80
2023/08/03 04:06:40;;;;;;;2.03;0.77;;;22.50;56.80;;;;;;4865038;28;45411;-82
2023/08/03 04:09:06;;;;;;;1.33;0.70;;;22.50;56.90;;;;;;4871530;28;44944;-83
2023/08/03 04:11:31;;;;;;;1.00;0.68;;;22.50;56.80;;;;;;4869345;28;46353;-81
2023/08/03 04:13:57;;;;;;;2.83;0.90;;;22.50;56.80;;;;;;4882773;28;45035;-82
2023/08/03 04:16:23;;;;;;;1.65;0.80;;;22.50;56.80;;;;;;4886825;28;45457;-82
2023/08/03 04:18:48;;;;;;;1.45;0.70;;;22.50;56.80;;;;;;4872122;28;45469;-82
2023/08/03 04:21:14;;;;;;;2.08;0.70;;;22.50;56.80;;;;;;4887944;28;46315;-82
2023/08/03 04:23:39;;;;;;;1.73;0.77;;;22.50;56.80;;;;;;4887395;28;45098;-84
2023/08/03 04:26:07;;;;;;;1.23;0.90;;;22.50;56.80;;;;;;4868900;28;45163;-82
2023/08/03 04:28:33;;;;;;;2.10;0.90;;;22.50;56.80;;;;;;4878225;28;44833;-82
2023/08/03 04:30:58;;;;;;;1.83;0.70;;;22.50;56.80;;;;;;4904640;28;45395;-82
2023/08/03 04:33:24;;;;;;;1.00;0.70;;;22.50;56.80;;;;;;4893726;28;44951;-83
2023/08/03 04:35:50;;;;;;;1.70;0.70;;;22.50;56.80;;;;;;4879256;28;45326;-83
2023/08/03 04:38:15;;;;;;;2.85;1.02;;;22.50;56.80;;;;;;4880129;28;45054;-83
2023/08/03 04:40:41;;;;;;;1.33;0.80;;;22.50;56.80;;;;;;4861419;28;47296;-83
2023/08/03 04:43:06;;;;;;;1.73;0.98;;;22.50;56.80;;;;;;4885875;28;44619;-83
2023/08/03 04:45:32;;;;;;;1.40;0.88;;;22.50;56.80;;;;;;4881197;28;45522;-81
2023/08/03 04:47:57;;;;;;;3.25;1.00;;;22.50;56.80;;;;;;4887418;28;44719;-82
2023/08/03 04:50:23;;;;;;;1.70;0.70;;;22.50;56.80;;;;;;4874509;28;47651;-84
2023/08/03 04:52:48;;;;;;;3.08;0.75;;;22.50;56.80;;;;;;4870829;28;45019;-83
2023/08/03 04:55:14;;;;;;;2.70;0.63;;;22.40;56.70;;;;;;4890571;28;45428;-84
2023/08/03 04:57:40;;;;;;;1.90;0.70;;;22.50;56.80;;;;;;4892968;28;45234;-81
2023/08/03 05:00:06;;;;;;;2.25;0.50;;;22.50;56.80;;;;;;4890426;28;45972;-83
2023/08/03 05:02:32;;;;;;;1.30;0.60;;;22.50;56.80;;;;;;4896080;28;45004;-81
2023/08/03 05:04:58;;;;;;;1.85;0.82;;;22.50;56.80;;;;;;4872295;28;45124;-82
2023/08/03 05:07:23;;;;;;;1.10;0.68;;;22.50;56.80;;;;;;4866612;29;45869;-82
2023/08/03 05:09:49;;;;;;;1.20;0.60;;;22.50;56.80;;;;;;4871508;29;48632;-82
2023/08/03 05:12:14;;;;;;;1.98;0.80;;;22.50;56.80;;;;;;4869099;29;45240;-81
2023/08/03 05:14:40;;;;;;;2.00;0.70;;;22.50;56.70;;;;;;4903153;28;45442;-83
2023/08/03 05:17:05;;;;;;;1.92;0.90;;;22.50;56.70;;;;;;4850379;29;45506;-83
2023/08/03 05:19:31;;;;;;;1.85;0.80;;;22.50;56.70;;;;;;4869482;29;47440;-81
2023/08/03 05:21:58;;;;;;;1.13;0.60;;;22.50;56.70;;;;;;4880970;29;44901;-82
2023/08/03 05:24:24;;;;;;;1.25;1.05;;;22.50;56.80;;;;;;4895192;29;45508;-83
2023/08/03 05:26:49;;;;;;;3.13;0.88;;;22.40;56.70;;;;;;4881298;28;45067;-80
2023/08/03 05:29:15;;;;;;;2.35;0.90;;;22.50;56.70;;;;;;4884757;29;45546;-83
2023/08/03 05:31:41;;;;;;;0.93;0.60;;;22.50;56.70;;;;;;4872276;29;44812;-80
2023/08/03 05:34:06;;;;;;;0.88;0.75;;;22.50;56.80;;;;;;4890133;29;45197;-81
2023/08/03 05:36:32;;;;;;;0.90;0.60;;;22.40;56.60;;;;;;4881010;29;45653;-80
2023/08/03 05:38:57;;;;;;;3.40;0.82;;;22.40;56.70;;;;;;4874378;28;47215;-83
2023/08/03 05:41:25;;;;;;;1.63;0.80;;;22.50;56.70;;;;;;4889636;28;45574;-80
2023/08/03 05:43:51;;;;;;;2.00;0.88;;;22.50;56.70;;;;;;4882913;28;45648;-82
2023/08/03 05:46:16;;;;;;;2.13;0.88;;;22.40;56.60;;;;;;4877213;28;45258;-82
2023/08/03 05:48:42;;;;;;;2.13;0.80;;;22.40;56.60;;;;;;4900905;28;46091;-80
2023/08/03 05:51:09;;;;;;;1.10;0.60;;;22.40;56.70;;;;;;4887754;28;44781;-84
2023/08/03 05:53:35;;;;;;;2.00;0.73;;;22.50;56.70;;;;;;4869589;29;45348;-82
2023/08/03 05:56:01;;;;;;;1.33;0.50;;;22.40;56.60;;;;;;4881957;28;45001;-84
2023/08/03 05:58:26;;;;;;;1.30;0.70;;;22.40;56.60;;;;;;4887318;29;46973;-83
2023/08/03 06:00:52;;;;;;;1.58;0.55;;;22.40;56.60;;;;;;4894493;28;45511;-83
2023/08/03 06:03:18;;;;;;;1.48;0.70;;;22.40;56.70;;;;;;4867885;29;44826;-84
2023/08/03 06:05:48;;;;;;;2.13;0.77;;;22.50;56.70;;;;;;4853980;29;45366;-81
2023/08/03 06:08:23;;;;;;;1.40;0.55;;;22.40;56.60;;;;;;4860547;29;47291;-81
2023/08/03 06:10:53;;;;;;;1.95;0.80;;;22.40;56.60;;;;;;4896352;28;45851;-82
2023/08/03 06:13:20;;;;;;;1.98;0.90;;;22.50;56.70;;;;;;4885331;29;45785;-81
2023/08/03 06:15:47;;;;;;;1.55;0.70;;;22.40;56.60;;;;;;4892509;28;45241;-88
2023/08/03 06:18:18;;;;;;;2.08;0.77;;;22.40;56.70;;;;;;4868762;29;47488;-83
2023/08/03 06:20:48;;;;;;;2.05;0.70;;;22.40;56.60;;;;;;4898137;28;45517;-81
2023/08/03 06:23:21;;;;;;;1.95;0.98;;;22.40;56.60;;;;;;4886864;29;45289;-82
2023/08/03 06:25:48;;;;;;;1.80;0.70;;;22.40;56.60;;;;;;4853320;29;45742;-84
2023/08/03 06:28:15;;;;;;;2.97;0.75;;;22.40;56.60;;;;;;4886801;28;47124;-83
2023/08/03 06:30:41;;;;;;;1.40;0.80;;;22.40;56.70;;;;;;4864855;28;45635;-84
2023/08/03 06:33:08;;;;;;;1.67;0.60;;;22.40;56.60;;;;;;4869259;29;45295;-83
2023/08/03 06:35:38;;;;;;;1.50;0.52;;;22.50;56.70;;;;;;4879601;29;46681;-82
2023/08/03 06:38:05;;;;;;;2.40;0.80;;;22.40;56.60;;;;;;4883239;29;48589;-81
2023/08/03 06:40:31;;;;;;;1.77;0.70;;;22.40;56.60;;;;;;4850242;29;45895;-83
2023/08/03 06:42:57;;;;;;;2.33;0.52;;;22.40;56.70;;;;;;4866400;28;44926;-82
2023/08/03 06:45:22;;;;;;;1.08;0.55;;;22.40;56.60;;;;;;4874930;29;45683;-85
2023/08/03 06:47:48;;;;;;;3.10;1.02;;;22.40;56.60;;;;;;4880526;29;47083;-81
2023/08/03 06:50:14;;;;;;;1.50;0.73;;;22.40;56.70;;;;;;4863812;28;45236;-83
2023/08/03 06:52:40;;;;;;;2.92;0.90;;;22.40;56.60;;;;;;4863848;28;45687;-82
2023/08/03 06:55:05;;;;;;;1.85;0.80;;;22.40;56.70;;;;;;4884387;29;44904;-86
2023/08/03 06:57:31;;;;;;;1.42;0.70;;;22.40;56.60;;;;;;4883244;29;45968;-83
2023/08/03 06:59:57;;;;;;;1.95;0.60;;;22.40;56.70;;;;;;4884746;29;45558;-84
2023/08/03 07:02:22;;;;;;;1.08;0.60;;;22.40;56.60;;;;;;4882050;28;45459;-80
2023/08/03 07:04:48;;;;;;;2.83;0.90;;;22.40;56.80;;;;;;4870582;28;45278;-82
2023/08/03 07:07:16;;;;;;;1.95;0.82;;;22.30;56.60;;;;;;4866669;28;48111;-82
2023/08/03 07:09:48;;;;;;;2.60;0.73;;;22.40;56.60;;;;;;4898200;28;45193;-82
2023/08/03 07:12:14;;;;;;;0.95;0.50;;;22.30;56.60;;;;;;4881530;29;45489;-82
2023/08/03 07:14:39;;;;;;;3.40;0.70;;;22.40;56.60;;;;;;4871095;28;46067;-81
2023/08/03 07:17:05;;;;;;;2.22;0.55;;;22.40;56.60;;;;;;4877693;28;45171;-81
2023/08/03 07:19:31;;;;;;;1.30;0.60;;;22.40;56.60;;;;;;4872782;28;45150;-84
2023/08/03 07:21:57;;;;;;;1.92;0.73;;;22.40;56.60;;;;;;4862836;28;45077;-82
2023/08/03 07:24:23;;;;;;;1.33;0.60;;;22.40;56.60;;;;;;4886662;29;45421;-81
2023/08/03 07:26:49;;;;;;;2.50;0.80;;;22.40;56.60;;;;;;4866460;28;46850;-83
2023/08/03 07:29:15;;;;;;;1.55;0.70;;;22.30;56.60;;;;;;4900779;28;45513;-83
2023/08/03 07:31:40;;;;;;;3.15;0.80;;;22.40;56.60;;;;;;4875035;29;45808;-81
2023/08/03 07:34:06;;;;;;;1.55;0.40;;;22.40;56.60;;;;;;4885675;29;45180;-84
2023/08/03 07:36:32;;;;;;;2.53;0.52;;;22.40;56.60;;;;;;4864622;29;47039;-83
2023/08/03 07:38:57;;;;;;;1.95;0.50;;;22.40;56.60;;;;;;4871704;28;45159;-81
2023/08/03 07:41:23;;;;;;;1.25;0.52;;;22.30;56.60;;;;;;4882380;29;44947;-82
2023/08/03 07:43:50;;;;;;;2.08;0.47;;;22.40;56.60;;;;;;4868655;29;45606;-81
2023/08/03 07:46:15;;;;;;;2.13;0.68;;;22.40;57.20;;;;;;4879664;29;45525;-80
2023/08/03 07:48:41;;;;;;;1.08;0.43;;;22.40;56.50;;;;;;4897221;28;45621;-83
2023/08/03 07:51:13;;;;;;;2.67;0.50;;;22.40;56.50;;;;;;4892749;28;45465;-81
2023/08/03 07:53:39;;;;;;;1.48;0.40;;;22.40;56.50;;;;;;4889958;29;46047;-84
2023/08/03 07:56:15;;;;;;;0.82;0.50;;;22.40;56.60;;;;;;4883783;29;47235;-83
2023/08/03 07:58:41;;;;;;;2.03;0.60;;;22.30;56.40;;;;;;4884987;28;45057;-82
2023/08/03 08:01:07;;;;;;;0.40;0.40;;;22.40;56.50;;;;;;4895633;28;45428;-82
2023/08/03 08:03:34;;;;;;;1.50;0.55;;;22.40;56.50;;;;;;4904062;28;45379;-82
2023/08/03 08:06:10;;;;;;;0.82;0.40;;;22.40;56.50;;;;;;4880690;29;47472;-80
2023/08/03 08:08:37;;;;;;;1.13;0.40;;;22.40;56.40;;;;;;4887549;29;44928;-83
2023/08/03 08:11:03;;;;;;;1.55;0.50;;;22.40;56.50;;;;;;4870143;29;45675;-82
2023/08/03 08:13:28;;;;;;;0.88;0.35;;;22.40;56.50;;;;;;4888295;29;44812;-82
2023/08/03 08:16:01;;;;;;;1.00;0.40;;;22.40;56.40;;;;;;4896259;28;46653;-81
2023/08/03 08:18:27;;;;;;;3.15;0.55;;;22.40;56.40;;;;;;4900969;28;44945;-82
2023/08/03 08:21:00;;;;;;;2.03;0.50;;;22.40;56.40;;;;;;4885173;29;45209;-83
2023/08/03 08:23:26;;;;;;;3.38;0.85;;;22.40;56.40;;;;;;4886402;29;45023;-85
2023/08/03 08:25:52;;;;;;;1.27;0.50;;;22.40;56.40;;;;;;4881314;29;46084;-82
2023/08/03 08:28:17;;;;;;;2.17;0.50;;;22.40;56.40;;;;;;4887533;28;44996;-82
2023/08/03 08:30:44;;;;;;;0.95;0.50;;;22.40;56.40;;;;;;4864362;28;44749;-82
2023/08/03 08:33:10;;;;;;;1.65;0.50;;;22.40;56.40;;;;;;4884894;28;45261;-80
2023/08/03 08:35:35;;;;;;;1.40;0.40;;;22.40;56.40;;;;;;4878373;29;45690;-82
2023/08/03 08:38:01;;;;;;;1.48;0.45;;;22.30;56.30;;;;;;4884280;28;45572;-84
2023/08/03 08:40:29;;;;;;;3.25;0.50;;;22.40;56.30;;;;;;4870719;29;45358;-89
2023/08/03 08:42:55;;;;;;;1.58;0.60;;;22.40;56.30;;;;;;4901036;28;45384;-85
2023/08/03 08:45:21;;;;;;;1.15;0.30;;;22.40;56.30;;;;;;4896218;28;45289;-84
2023/08/03 08:47:47;;;;;;;2.83;0.60;;;22.40;56.30;;;;;;4880147;29;45406;-84
2023/08/03 08:50:16;;;;;;;0.52;0.30;;;22.40;56.30;;;;;;4881118;28;45396;-89
2023/08/03 08:52:42;;;;;;;0.75;0.47;;;22.40;56.20;;;;;;4887233;28;45345;-83
2023/08/03 08:55:15;;;;;;;1.60;0.68;;;22.40;56.30;;;;;;4867390;29;46835;-79
2023/08/03 08:57:41;;;;;;;;;;;22.40;56.20;;;;;;4885475;29;45962;-82
2023/08/03 09:00:07;;;;;;;2.05;0.40;;;22.30;56.20;;;;;;4887244;28;45187;-84
2023/08/03 09:02:33;;;;;;;1.30;0.43;;;22.30;56.30;;;;;;4873169;29;45519;-82
2023/08/03 09:05:19;;;;;;;1.10;0.35;;;22.40;56.20;;;;;;4883574;29;46369;-89
2023/08/03 09:08:05;;;;;;;0.55;0.20;;;22.40;56.10;;;;;;4887184;29;44709;-81
2023/08/03 09:10:31;;;;;;;0.70;0.40;;;22.40;56.20;;;;;;4867641;29;45484;-81
2023/08/03 09:12:57;;;;;;;0.95;0.45;;;22.40;56.20;;;;;;4883236;28;45385;-82
2023/08/03 09:15:42;;;;;;;0.90;0.45;;;22.40;56.20;;;;;;4898135;28;47259;-85
2023/08/03 09:18:07;;;;;;;1.40;0.50;;;22.40;56.10;;;;;;4902389;28;46466;-80
2023/08/03 09:20:33;;;;;;;0.77;0.30;;;22.40;56.20;;;;;;4879587;29;46228;-82
2023/08/03 09:23:02;;;;;;;3.42;0.65;;;22.40;56.20;;;;;;4883584;28;45011;-85
2023/08/03 09:25:27;;;;;;;0.35;0.30;;;22.40;56.20;;;;;;4882494;28;46857;-85
2023/08/03 09:27:56;;;;;;;0.50;0.40;;;22.30;56.10;;;;;;4883001;29;44778;-86
2023/08/03 09:30:22;;;;;;;0.90;0.50;;;22.30;56.10;;;;;;4862783;29;45072;-86
2023/08/03 09:32:47;;;;;;;1.02;0.43;;;22.30;56.10;;;;;;4883458;29;45041;-82
2023/08/03 09:35:20;;;;;;;1.20;0.50;;;22.40;56.10;;;;;;4863310;29;48332;-91
2023/08/03 09:37:45;;;;;;;1.47;0.30;;;22.40;56.10;;;;;;4894294;28;45381;-83
2023/08/03 09:40:12;;;;;;;0.47;0.35;;;22.30;56.10;;;;;;4864655;28;45450;-83
2023/08/03 09:42:39;;;;;;;0.40;0.30;;;22.30;56.10;;;;;;4883340;29;45249;-86
2023/08/03 09:45:11;;;;;;;1.45;0.40;;;22.40;56.10;;;;;;4882734;29;46681;-88
2023/08/03 09:47:38;;;;;;;0.53;0.30;;;22.40;56.10;;;;;;4880784;28;45620;-83
2023/08/03 09:50:09;;;;;;;1.25;0.43;;;22.40;56.10;;;;;;4885223;28;44750;-88
2023/08/03 09:52:43;;;;;;;0.98;0.40;;;22.40;56.10;;;;;;4867778;29;45559;-84
2023/08/03 09:55:12;;;;;;;0.95;0.57;;;22.40;56.10;;;;;;4867254;28;47063;-85
2023/08/03 09:58:04;;;;;;;3.00;0.40;;;22.30;56.00;;;;;;4883641;29;45249;-84
2023/08/03 10:00:30;;;;;;;0.63;0.35;;;22.40;56.00;;;;;;4884489;28;45079;-85
2023/08/03 10:02:57;;;;;;;0.93;0.40;;;22.40;56.10;;;;;;4870502;28;45730;-81
2023/08/03 10:05:24;;;;;;;1.55;0.35;;;22.40;56.10;;;;;;4888261;28;45961;-84
2023/08/03 10:07:57;;;;;;;1.52;0.50;;;22.40;56.10;;;;;;4888584;28;45402;-84
2023/08/03 10:10:23;;;;;;;0.40;0.32;;;22.40;56.10;;;;;;4868777;28;45480;-83
2023/08/03 10:12:52;;;;;;;1.13;0.40;;;22.40;56.10;;;;;;4870759;28;45705;-84
2023/08/03 10:15:17;;;;;;;1.30;0.70;;;22.40;56.10;;;;;;4886739;28;45277;-82
2023/08/03 10:17:43;;;;;;;1.45;0.90;;;22.40;56.10;;;;;;4876945;28;45275;-81
2023/08/03 10:20:09;;;;;;;0.90;0.65;;;22.40;56.10;;;;;;4900041;28;44757;-88
2023/08/03 10:22:35;;;;;;;1.40;0.90;;;22.40;56.10;;;;;;4899095;28;44817;-84
2023/08/03 10:25:19;;;;;;;1.83;1.05;;;22.40;56.00;;;;;;4884732;28;46979;-84
2023/08/03 10:28:10;;;;;;;1.40;0.85;;;22.30;56.00;;;;;;4886770;28;45065;-84
2023/08/03 10:31:03;;;;;;;1.85;1.02;;;22.40;55.90;;;;;;4884103;28;45022;-82
2023/08/03 10:33:50;;;;;;;1.77;0.85;;;22.40;56.00;;;;;;4902827;28;45017;-84
2023/08/03 10:36:31;;;;;;;1.67;0.80;;;22.40;56.00;;;;;;4899443;28;46080;-84
2023/08/03 10:39:11;;;;;;;1.85;0.93;;;22.40;56.00;;;;;;4904589;28;45284;-83
2023/08/03 10:41:38;;;;;;;1.88;1.20;;;22.40;56.00;;;;;;4868651;28;45303;-80
2023/08/03 10:44:07;;;;;;;0.82;0.73;;;22.40;56.10;;;;;;4902839;28;44768;-84
2023/08/03 10:46:35;;;;;;;1.73;0.95;;;22.40;56.00;;;;;;4904666;28;46561;-85
2023/08/03 10:49:20;;;;;;;1.75;1.30;;;22.40;56.00;;;;;;4919794;28;45266;-82
2023/08/03 10:51:50;;;;;;;2.13;1.20;;;22.30;55.90;;;;;;4910650;28;45898;-83
2023/08/03 10:54:42;;;;;;;1.65;1.10;;;22.40;56.00;;;;;;4888637;28;45426;-83
2023/08/03 10:57:09;;;;;;;2.15;1.13;;;22.30;55.90;;;;;;4882974;28;46241;-84
2023/08/03 10:59:50;;;;;;;2.10;1.10;;;22.40;56.00;;;;;;4872109;28;45216;-83
2023/08/03 11:02:30;;;;;;;2.58;1.10;;;22.40;56.00;;;;;;4892308;28;45589;-80
2023/08/03 11:05:00;;;;;;;3.47;1.25;;;22.40;56.00;;;;;;4871512;28;45678;-80
2023/08/03 11:07:34;;;;;;;3.00;1.20;;;22.30;55.90;;;;;;4882709;28;47134;-81
2023/08/03 11:10:10;;;;;;;1.83;1.05;;;22.40;56.00;;;;;;4891337;28;45501;-84
2023/08/03 11:12:36;;;;;;;1.67;1.00;;;22.40;56.00;;;;;;4905494;28;46923;-81
2023/08/03 11:15:08;;;;;;;1.38;1.13;;;22.40;56.00;;;;;;4883525;29;44756;-90
2023/08/03 11:17:35;;;;;;;1.77;0.93;;;22.40;56.00;;;;;;4877668;28;45964;-84
2023/08/03 11:20:07;;;;;;;2.25;1.00;;;22.40;56.00;;;;;;4865910;29;44881;-85
2023/08/03 11:22:33;;;;;;;1.10;0.90;;;22.40;56.00;;;;;;4883918;28;45521;-83
2023/08/03 11:25:05;;;;;;;1.73;0.85;;;22.40;56.00;;;;;;4858188;28;45641;-84
2023/08/03 11:27:34;;;;;;;1.88;1.00;;;22.40;56.00;;;;;;4860513;29;46389;-84
2023/08/03 11:30:03;;;;;;;2.15;1.00;;;22.40;55.90;;;;;;4858740;29;46250;-83
2023/08/03 11:32:32;;;;;;;1.85;1.10;;;22.40;56.50;;;;;;4855030;28;44785;-91
2023/08/03 11:35:07;;;;;;;2.60;1.55;;;22.40;56.00;;;;;;4856757;29;44877;-84
2023/08/03 11:37:34;;;;;;;4.40;1.15;;;22.40;56.00;;;;;;4859800;29;45369;-91
2023/08/03 11:40:00;;;;;;;2.05;1.05;;;22.40;55.90;;;;;;4880159;29;45474;-83
2023/08/03 11:42:26;;;;;;;1.70;1.10;;;22.40;55.90;;;;;;4869800;29;45397;-81
2023/08/03 11:44:52;;;;;;;2.30;1.00;;;22.40;55.90;;;;;;4860689;29;48856;-82
2023/08/03 11:47:17;;;;;;;0.77;0.60;;;22.40;55.90;;;;;;4872559;28;47442;-85
2023/08/03 11:49:44;;;;;;;1.67;0.93;;;22.40;55.90;;;;;;4872767;29;45361;-84
2023/08/03 11:52:19;;;;;;;1.30;0.70;;;22.40;55.90;;;;;;4844423;28;45926;-81
2023/08/03 11:54:45;;;;;;;1.05;0.90;;;22.40;55.90;;;;;;4887324;28;45733;-87
2023/08/03 11:59:55;;;;;;;1.95;1.00;;;22.40;55.90;;;;;;4901588;28;45174;-81
2023/08/03 12:02:43;;;;;;;1.40;1.00;;;22.40;55.90;;;;;;4866317;29;45228;-86
2023/08/03 12:05:09;;;;;;;1.00;0.90;;;22.40;55.90;;;;;;4891933;29;44929;-83
2023/08/03 12:07:37;;;;;;;1.38;1.00;;;22.40;55.90;;;;;;4873008;29;45164;-80
2023/08/03 12:10:14;;;;;;;1.67;0.90;;;22.40;55.90;;;;;;4887933;29;45073;-89
2023/08/03 12:12:41;;;;;;;1.02;0.70;;;22.40;55.90;;;;;;4857198;28;45057;-84
2023/08/03 12:15:12;;;;;;;1.75;0.90;;;22.40;55.90;;;;;;4884676;29;45262;-89
2023/08/03 12:17:38;;;;;;;1.17;0.80;;;22.40;55.90;;;;;;4880343;29;46017;-87
2023/08/03 12:20:09;;;;;;;1.25;0.77;;;22.40;56.00;;;;;;4874811;29;45514;-90
2023/08/03 12:22:35;;;;;;;1.02;0.70;;;22.40;55.90;;;;;;4892592;28;44901;-82
2023/08/03 12:25:00;;;;;;;1.15;0.60;;;22.40;55.90;;;;;;4887330;28;45224;-82
2023/08/03 12:27:26;;;;;;;0.82;0.80;;;22.40;55.90;;;;;;4884877;29;45674;-86
2023/08/03 12:29:51;;;;;;;0.82;0.65;;;22.50;56.00;;;;;;4879064;29;45188;-83
2023/08/03 12:32:17;;;;;;;1.73;0.80;;;22.40;55.90;;;;;;4903877;28;45220;-81
2023/08/03 12:34:43;;;;;;;4.95;0.70;;;22.50;56.00;;;;;;4888575;28;45701;-83
2023/08/03 12:37:08;;;;;;;0.73;0.60;;;22.40;55.90;;;;;;4901617;28;45667;-82
2023/08/03 12:39:34;;;;;;;0.95;0.52;;;22.40;55.90;;;;;;4888048;28;45771;-81
2023/08/03 12:41:59;;;;;;;1.58;0.70;;;22.40;55.90;;;;;;4881723;29;45520;-82
2023/08/03 12:44:26;;;;;;;0.82;0.60;;;22.40;55.90;;;;;;4905554;29;44758;-81
2023/08/03 12:46:51;;;;;;;1.42;0.60;;;22.40;55.90;;;;;;4884620;28;46360;-83
2023/08/03 12:49:18;;;;;;;1.15;0.70;;;22.40;55.90;;;;;;4883732;28;45661;-88
2023/08/03 12:51:44;;;;;;;0.93;0.60;;;22.50;56.00;;;;;;4871907;29;46338;-84
2023/08/03 12:54:10;;;;;;;1.80;0.80;;;22.40;55.90;;;;;;4900155;28;45261;-84
2023/08/03 12:56:38;;;;;;;1.77;0.82;;;22.50;56.00;;;;;;4884609;28;46679;-84
2023/08/03 12:59:04;;;;;;;1.88;0.80;;;22.50;55.90;;;;;;4859477;29;44770;-83
2023/08/03 13:01:30;;;;;;;0.77;0.63;;;22.50;55.90;;;;;;4871555;29;45393;-83
2023/08/03 13:03:56;;;;;;;2.75;0.82;;;22.50;56.00;;;;;;4900624;28;45640;-86
2023/08/03 13:06:21;;;;;;;1.35;0.70;;;22.50;55.90;;;;;;4884843;29;47298;-86
2023/08/03 13:08:47;;;;;;;0.80;0.50;;;22.50;55.90;;;;;;4870907;28;44835;-82
2023/08/03 13:11:14;;;;;;;1.10;0.75;;;22.50;56.00;;;;;;4882999;28;45412;-86
2023/08/03 13:13:39;;;;;;;1.67;0.75;;;22.50;55.90;;;;;;4870585;29;45241;-81
2023/08/03 13:16:05;;;;;;;1.02;0.60;;;22.50;55.90;;;;;;4883212;29;47202;-85
2023/08/03 13:18:31;;;;;;;0.90;0.50;;;22.50;55.90;;;;;;4874115;28;45274;-84
2023/08/03 13:20:58;;;;;;;0.75;0.52;;;22.50;55.90;;;;;;4865569;29;45327;-85
2023/08/03 13:23:24;;;;;;;1.88;0.60;;;22.50;55.90;;;;;;4883454;29;44900;-81
2023/08/03 13:25:49;;;;;;;1.05;0.52;;;22.50;55.90;;;;;;4883457;29;47068;-83
2023/08/03 13:28:15;;;;;;;0.30;0.30;;;22.50;56.00;;;;;;4887451;29;45318;-82
2023/08/03 13:30:40;;;;;;;1.55;0.70;;;22.50;55.90;;;;;;4881763;28;45596;-84
2023/08/03 13:33:06;;;;;;;0.55;0.38;;;22.50;55.90;;;;;;4872914;29;46122;-84
2023/08/03 13:35:31;;;;;;;1.17;0.57;;;22.50;55.80;;;;;;4853648;29;47596;-85
2023/08/03 13:37:57;;;;;;;0.77;0.38;;;22.50;55.80;;;;;;4898685;28;45257;-83
2023/08/03 13:40:23;;;;;;;1.20;0.50;;;22.50;55.80;;;;;;4885915;29;45234;-84
2023/08/03 13:42:48;;;;;;;0.80;0.40;;;22.50;55.80;;;;;;4869545;29;45669;-85
2023/08/03 13:45:14;;;;;;;0.65;0.40;;;22.50;55.80;;;;;;4850246;29;47356;-86
2023/08/03 13:47:40;;;;;;;0.70;0.40;;;22.50;55.70;;;;;;4900362;28;45210;-83
2023/08/03 13:50:09;;;;;;;1.02;0.52;;;22.50;55.70;;;;;;4885803;29;45273;-86
2023/08/03 13:52:34;;;;;;;0.65;0.50;;;22.50;55.70;;;;;;4881349;28;45331;-82
2023/08/03 13:55:00;;;;;;;0.50;0.30;;;22.50;55.70;;;;;;4900728;28;46167;-84
2023/08/03 13:57:26;;;;;;;2.42;0.28;;;22.50;55.70;;;;;;4866450;28;45302;-88
2023/08/03 13:59:51;;;;;;;0.93;0.45;;;22.50;55.70;;;;;;4868991;28;45355;-81
2023/08/03 14:02:17;;;;;;;1.38;0.40;;;22.50;55.60;;;;;;4865650;28;45659;-80
2023/08/03 14:04:42;;;;;;;1.75;0.40;;;22.50;55.60;;;;;;4899578;28;45981;-81
2023/08/03 14:07:08;;;;;;;0.85;0.32;;;22.50;55.60;;;;;;4868840;29;45723;-81
2023/08/03 14:09:33;;;;;;;1.77;0.30;;;22.50;55.60;;;;;;4886664;29;44702;-84
2023/08/03 14:11:59;;;;;;;0.63;0.40;;;22.50;55.60;;;;;;4865637;29;44772;-81
2023/08/03 14:14:24;;;;;;;0.40;0.40;;;22.50;55.60;;;;;;4881528;29;47303;-84
2023/08/03 14:16:50;;;;;;;0.60;0.30;;;22.50;55.60;;;;;;4872300;28;45281;-82
2023/08/03 14:19:16;;;;;;;0.73;0.40;;;22.50;55.50;;;;;;4874209;28;45649;-83
2023/08/03 14:21:42;;;;;;;0.32;0.22;;;22.50;55.50;;;;;;4869519;29;45337;-82
2023/08/03 14:24:08;;;;;;;0.85;0.40;;;22.50;55.50;;;;;;4901799;28;47011;-85
2023/08/03 14:26:34;;;;;;;0.30;0.28;;;22.60;55.80;;;;;;4883121;28;44993;-81
2023/08/03 14:28:59;;;;;;;1.38;0.40;;;22.50;55.50;;;;;;4884620;29;45254;-89
2023/08/03 14:31:25;;;;;;;0.60;0.30;;;22.60;55.50;;;;;;4882177;29;46368;-84
2023/08/03 14:33:50;;;;;;;0.30;0.30;;;22.50;56.00;;;;;;4882979;28;47121;-82
2023/08/03 14:36:16;;;;;;;0.57;0.40;;;22.60;55.40;;;;;;4876693;29;45976;-83
2023/08/03 14:38:41;;;;;;;1.92;0.20;;;22.60;55.50;;;;;;4885680;29;45071;-83
2023/08/03 14:41:19;;;;;;;0.40;0.20;;;22.60;55.50;;;;;;4898834;28;47500;-83
2023/08/03 14:43:45;;;;;;;0.30;0.20;;;22.60;55.40;;;;;;4872026;28;47457;-84
2023/08/03 14:46:11;;;;;;;0.20;0.13;;;22.60;55.40;;;;;;4881529;28;45640;-84
2023/08/03 14:48:37;;;;;;;0.55;0.30;;;22.50;55.40;;;;;;4836308;28;46253;-84
2023/08/03 14:51:02;;;;;;;0.75;0.20;;;22.60;55.40;;;;;;4881517;28;45361;-81
2023/08/03 14:53:28;;;;;;;1.10;0.20;;;22.60;55.40;;;;;;4883490;29;45924;-83
2023/08/03 14:56:00;;;;;;;0.70;0.28;;;22.50;55.40;;;;;;4883353;28;45474;-88
2023/08/03 14:58:26;;;;;;;0.55;0.28;;;22.50;56.00;;;;;;4870271;29;45480;-83
2023/08/03 15:00:51;;;;;;;1.95;0.30;;;22.60;55.50;;;;;;4864951;28;45448;-83
2023/08/03 15:03:18;;;;;;;0.40;0.30;;;22.60;55.50;;;;;;4887895;28;46885;-86
2023/08/03 15:05:44;;;;;;;1.65;0.20;;;22.50;55.40;;;;;;4884506;28;45137;-83
2023/08/03 15:08:10;;;;;;;0.43;0.30;;;22.60;55.40;;;;;;4869617;28;45223;-83
2023/08/03 15:10:35;;;;;;;1.02;0.35;;;22.60;55.40;;;;;;4882751;28;45346;-84
2023/08/03 15:13:01;;;;;;;0.98;0.52;;;22.60;55.50;;;;;;4886928;28;47230;-84
2023/08/03 15:15:35;;;;;;;0.55;0.28;;;22.60;55.50;;;;;;4885326;28;45453;-90
2023/08/03 15:18:01;;;;;;;0.32;0.20;;;22.70;55.50;;;;;;4886386;28;45674;-83
2023/08/03 15:20:33;;;;;;;0.50;0.20;;;22.60;55.50;;;;;;4875662;28;45494;-83
2023/08/03 15:22:58;;;;;;;0.68;0.20;;;22.60;55.50;;;;;;4877264;28;48529;-84
2023/08/03 15:25:24;;;;;;;1.67;0.30;;;22.60;55.50;;;;;;4884727;28;45476;-88
2023/08/03 15:27:50;;;;;;;0.55;0.20;;;22.60;55.50;;;;;;4867905;28;46100;-82
2023/08/03 15:30:16;;;;;;;1.15;0.20;;;22.60;55.50;;;;;;4867800;28;44904;-84
2023/08/03 15:32:41;;;;;;;1.42;0.25;;;22.60;55.50;;;;;;4886941;28;48212;-83
2023/08/03 15:35:07;;;;;;;1.13;0.17;;;22.70;55.60;;;;;;4884980;28;45076;-85
2023/08/03 15:37:32;;;;;;;0.43;0.17;;;22.60;55.50;;;;;;4884355;28;45244;-89
2023/08/03 15:39:58;;;;;;;1.13;0.20;;;22.60;55.50;;;;;;4869412;28;45183;-83
2023/08/03 15:42:24;;;;;;;0.68;0.35;;;22.70;55.60;;;;;;4898409;28;46407;-82
2023/08/03 15:44:49;;;;;;;1.40;0.20;;;22.60;55.50;;;;;;4873549;28;45020;-81
2023/08/03 15:47:15;;;;;;;0.63;0.10;;;22.60;55.50;;;;;;4899311;28;45237;-84
2023/08/03 15:49:40;;;;;;;1.98;0.30;;;22.60;55.50;;;;;;4889996;28;48796;-87
2023/08/03 15:52:06;;;;;;;0.77;0.30;;;22.60;55.50;;;;;;4899043;28;47239;-82